createdAt,value
2022-11-05T00:00:31.060Z,75.67
2022-11-05T00:03:18.139Z,75.75
2022-11-05T00:06:05.948Z,76.10
2022-11-05T00:08:51.555Z,76.13
2022-11-05T00:11:39.854Z,76.19
2022-11-05T00:14:25.648Z,75.88
2022-11-05T00:16:53.905Z,75.76
2022-11-05T00:19:23.442Z,75.51
2022-11-05T00:22:09.024Z,75.66
2022-11-05T00:24:54.896Z,75.23
2022-11-05T00:27:23.157Z,75.04
2022-11-05T00:29:51.363Z,75.02
2022-11-05T00:32:19.672Z,75.36
2022-11-05T00:34:49.269Z,76.07
2022-11-05T00:37:17.501Z,75.86
2022-11-05T00:39:45.716Z,75.93
2022-11-05T00:42:39.860Z,76.19
2022-11-05T00:45:09.476Z,75.96
2022-11-05T00:47:55.353Z,75.91
2022-11-05T00:50:25.823Z,75.71
2022-11-05T00:52:59.665Z,75.59
2022-11-05T00:55:34.569Z,75.59
2022-11-05T00:58:05.418Z,75.30
2022-11-05T01:00:36.260Z,75.22
2022-11-05T01:03:07.176Z,75.12
2022-11-05T01:05:41.002Z,75.06
2022-11-05T01:08:09.976Z,74.70
2022-11-05T01:10:42.375Z,74.44
2022-11-05T01:13:13.220Z,74.60
2022-11-05T01:15:41.964Z,74.59
2022-11-05T01:18:10.377Z,74.85
2022-11-05T01:20:40.100Z,74.57
2022-11-05T01:23:13.162Z,74.48
2022-11-05T01:25:42.048Z,74.93
2022-11-05T01:28:11.022Z,75.04
2022-11-05T01:30:39.795Z,75.32
2022-11-05T01:33:08.869Z,75.08
2022-11-05T01:35:37.249Z,75.22
2022-11-05T01:38:06.882Z,75.52
2022-11-05T01:40:35.103Z,75.78
2022-11-05T01:43:03.337Z,76.10
2022-11-05T01:45:31.609Z,76.40
2022-11-05T01:48:06.904Z,77.08
2022-11-05T01:50:41.678Z,78.18
2022-11-05T01:53:19.888Z,80.42
2022-11-05T01:55:56.053Z,81.37
2022-11-05T01:58:30.317Z,81.38
2022-11-05T02:00:58.573Z,81.27
2022-11-05T02:03:27.590Z,81.06
2022-11-05T02:05:58.600Z,80.28
2022-11-05T02:08:46.483Z,81.59
2022-11-05T02:11:18.378Z,80.39
2022-11-05T02:13:47.621Z,79.49
2022-11-05T02:16:23.821Z,78.65
2022-11-05T02:19:00.992Z,77.76
2022-11-05T02:21:54.385Z,77.63
2022-11-05T02:25:07.361Z,77.64
2022-11-05T02:28:06.333Z,77.51
2022-11-05T02:30:46.877Z,77.89
2022-11-05T02:33:42.984Z,78.39
2022-11-05T02:36:29.810Z,78.34
2022-11-05T02:39:11.649Z,78.55
2022-11-05T02:41:49.867Z,78.45
2022-11-05T02:44:27.940Z,78.43
2022-11-05T02:47:04.479Z,78.44
2022-11-05T02:49:43.090Z,78.65
2022-11-05T02:52:17.925Z,78.55
2022-11-05T02:54:55.350Z,78.52
2022-11-05T02:57:24.406Z,78.44
2022-11-05T03:00:02.352Z,78.36
2022-11-05T03:02:32.358Z,78.42
2022-11-05T03:05:01.425Z,78.45
2022-11-05T03:07:44.973Z,78.62
2022-11-05T03:10:42.200Z,78.76
2022-11-05T03:13:18.552Z,79.04
2022-11-05T03:15:58.130Z,78.66
2022-11-05T03:18:35.379Z,78.68
2022-11-05T03:21:10.176Z,78.04
2022-11-05T03:23:45.851Z,78.07
2022-11-05T03:26:19.787Z,78.05
2022-11-05T03:28:53.264Z,77.71
2022-11-05T03:31:23.856Z,77.63
2022-11-05T03:33:56.192Z,77.55
2022-11-05T03:36:29.787Z,77.23
2022-11-05T03:39:01.073Z,76.75
2022-11-05T03:41:30.734Z,76.56
2022-11-05T03:44:02.950Z,76.26
2022-11-05T03:46:36.470Z,76.01
2022-11-05T03:49:09.541Z,75.95
2022-11-05T03:51:43.841Z,75.83
2022-11-05T03:54:12.369Z,75.52
2022-11-05T03:56:47.404Z,75.57
2022-11-05T03:59:16.228Z,75.34
2022-11-05T04:01:45.398Z,75.47
2022-11-05T04:04:15.083Z,75.24
2022-11-05T04:07:00.711Z,75.32
2022-11-05T04:09:46.298Z,75.16
2022-11-05T04:12:31.978Z,75.35
2022-11-05T04:15:00.272Z,75.44
2022-11-05T04:17:27.487Z,75.52
2022-11-05T04:20:14.591Z,75.56
2022-11-05T04:23:00.375Z,75.49
2022-11-05T04:25:28.641Z,75.39
2022-11-05T04:28:01.214Z,75.28
2022-11-05T04:30:28.456Z,75.21
2022-11-05T04:33:03.753Z,75.28
2022-11-05T04:35:36.131Z,75.29
2022-11-05T04:38:05.044Z,75.22
2022-11-05T04:40:33.546Z,75.53
2022-11-05T04:43:02.383Z,75.67
2022-11-05T04:45:34.290Z,75.63
2022-11-05T04:48:02.999Z,75.39
2022-11-05T04:50:33.459Z,75.37
2022-11-05T04:53:02.172Z,75.12
2022-11-05T04:55:30.514Z,75.21
2022-11-05T04:57:58.801Z,75.19
2022-11-05T05:00:27.291Z,75.31
2022-11-05T05:02:55.676Z,75.57
2022-11-05T05:05:24.092Z,75.63
2022-11-05T05:07:53.668Z,76.08
2022-11-05T05:10:21.881Z,76.37
2022-11-05T05:12:50.166Z,76.58
2022-11-05T05:15:18.853Z,76.84
2022-11-05T05:17:51.675Z,77.06
2022-11-05T05:20:36.865Z,77.35
2022-11-05T05:23:06.487Z,77.71
2022-11-05T05:25:34.754Z,78.00
2022-11-05T05:28:02.992Z,78.48
2022-11-05T05:30:31.282Z,78.46
2022-11-05T05:33:04.001Z,78.86
2022-11-05T05:35:32.550Z,78.98
2022-11-05T05:38:00.943Z,79.27
2022-11-05T05:40:30.496Z,79.77
2022-11-05T05:42:58.732Z,79.79
2022-11-05T05:45:26.923Z,79.63
2022-11-05T05:47:56.788Z,79.60
2022-11-05T05:50:25.054Z,79.65
2022-11-05T05:52:53.542Z,80.06
2022-11-05T05:55:21.843Z,79.99
2022-11-05T05:57:51.493Z,80.06
2022-11-05T06:00:19.862Z,80.02
2022-11-05T06:02:48.192Z,79.86
2022-11-05T06:05:16.747Z,79.96
2022-11-05T06:07:45.024Z,80.03
2022-11-05T06:10:13.267Z,80.11
2022-11-05T06:12:41.584Z,80.12
2022-11-05T06:15:11.946Z,80.33
2022-11-05T06:17:40.169Z,80.53
2022-11-05T06:20:09.928Z,80.50
2022-11-05T06:22:38.127Z,80.49
2022-11-05T06:25:08.209Z,80.91
2022-11-05T06:27:37.227Z,80.92
2022-11-05T06:30:06.674Z,81.17
2022-11-05T06:32:36.523Z,81.44
2022-11-05T06:35:05.037Z,81.51
2022-11-05T06:37:34.191Z,81.78
2022-11-05T06:40:02.473Z,82.02
2022-11-05T06:42:30.689Z,82.12
2022-11-05T06:44:58.932Z,82.14
2022-11-05T06:47:27.159Z,82.40
2022-11-05T06:49:57.341Z,82.55
2022-11-05T06:52:27.158Z,82.70
2022-11-05T06:54:55.426Z,82.58
2022-11-05T06:57:23.666Z,82.87
2022-11-05T06:59:55.751Z,83.06
2022-11-05T07:02:27.164Z,83.17
2022-11-05T07:04:56.809Z,82.75
2022-11-05T07:07:25.029Z,82.33
2022-11-05T07:09:53.700Z,81.66
2022-11-05T07:12:21.957Z,81.34
2022-11-05T07:14:50.144Z,80.49
2022-11-05T07:17:19.403Z,79.84
2022-11-05T07:19:47.817Z,78.77
2022-11-05T07:22:17.516Z,78.03
2022-11-05T07:24:47.339Z,77.55
2022-11-05T07:27:15.675Z,76.66
2022-11-05T07:29:44.027Z,76.24
2022-11-05T07:32:12.283Z,76.31
2022-11-05T07:34:40.475Z,76.46
2022-11-05T07:37:08.785Z,76.33
2022-11-05T07:39:38.348Z,75.99
2022-11-05T07:42:06.829Z,75.21
2022-11-05T07:44:35.570Z,75.00
2022-11-05T07:47:03.847Z,75.06
2022-11-05T07:49:32.152Z,75.37
2022-11-05T07:52:00.341Z,75.06
2022-11-05T07:54:28.581Z,75.58
2022-11-05T07:56:58.213Z,75.55
2022-11-05T07:59:26.908Z,75.68
2022-11-05T08:01:55.283Z,76.10
2022-11-05T08:04:23.770Z,76.75
2022-11-05T08:06:52.019Z,77.14
2022-11-05T08:09:20.290Z,77.21
2022-11-05T08:11:50.337Z,77.73
2022-11-05T08:14:22.558Z,77.84
2022-11-05T08:16:50.829Z,77.86
2022-11-05T08:19:19.099Z,78.04
2022-11-05T08:21:47.511Z,78.41
2022-11-05T08:24:15.716Z,78.23
2022-11-05T08:26:43.952Z,78.37
2022-11-05T08:29:12.161Z,78.18
2022-11-05T08:31:41.752Z,78.71
2022-11-05T08:34:10.045Z,79.30
2022-11-05T08:36:40.488Z,78.81
2022-11-05T08:39:14.285Z,78.64
2022-11-05T08:41:45.600Z,78.85
2022-11-05T08:44:13.871Z,79.16
2022-11-05T08:46:43.439Z,79.18
2022-11-05T08:49:11.905Z,79.17
2022-11-05T08:51:40.104Z,79.19
2022-11-05T08:54:08.744Z,78.86
2022-11-05T08:56:36.968Z,78.71
2022-11-05T08:59:05.269Z,78.62
2022-11-05T09:01:34.749Z,78.35
2022-11-05T09:04:04.953Z,78.68
2022-11-05T09:06:33.253Z,78.48
2022-11-05T09:09:01.752Z,78.66
2022-11-05T09:11:56.909Z,78.84
2022-11-05T09:14:18.315Z,78.71
2022-11-05T09:16:46.551Z,79.03
2022-11-05T09:19:16.197Z,79.16
2022-11-05T09:21:44.532Z,79.03
2022-11-05T09:24:12.813Z,78.73
2022-11-05T09:26:41.086Z,78.39
2022-11-05T09:29:14.237Z,78.13
2022-11-05T09:31:43.397Z,78.15
2022-11-05T09:34:11.633Z,77.79
2022-11-05T09:36:41.276Z,77.84
2022-11-05T09:39:12.686Z,77.27
2022-11-05T09:41:43.489Z,76.52
2022-11-05T09:44:16.135Z,76.46
2022-11-05T09:46:50.665Z,76.36
2022-11-05T09:49:27.504Z,76.43
2022-11-05T09:51:59.299Z,76.46
2022-11-05T09:54:33.288Z,76.96
2022-11-05T09:57:03.651Z,77.38
2022-11-05T09:59:37.693Z,76.59
2022-11-05T10:02:16.843Z,76.58
2022-11-05T10:04:48.679Z,76.56
2022-11-05T10:07:23.229Z,77.22
2022-11-05T10:09:56.665Z,77.07
2022-11-05T10:12:33.184Z,77.21
2022-11-05T10:15:13.076Z,77.34
2022-11-05T10:17:47.536Z,77.12
2022-11-05T10:20:23.430Z,77.08
2022-11-05T10:22:58.034Z,77.13
2022-11-05T10:25:33.124Z,77.09
2022-11-05T10:28:01.958Z,75.27
2022-11-05T10:30:30.192Z,74.36
2022-11-05T10:33:02.250Z,73.04
2022-11-05T10:35:34.399Z,70.71
2022-11-05T10:38:04.565Z,70.95
2022-11-05T10:40:50.281Z,70.01
2022-11-05T10:43:25.393Z,68.22
2022-11-05T10:46:00.715Z,67.88
2022-11-05T10:48:50.764Z,67.78
2022-11-05T10:51:19.432Z,67.22
2022-11-05T10:54:01.389Z,67.46
2022-11-05T10:56:34.563Z,68.00
2022-11-05T10:59:07.923Z,68.16
2022-11-05T11:01:39.416Z,68.97
2022-11-05T11:04:17.756Z,69.35
2022-11-05T11:06:51.182Z,69.18
2022-11-05T11:09:25.277Z,69.54
2022-11-05T11:12:08.741Z,69.55
2022-11-05T11:14:37.136Z,70.25
2022-11-05T11:17:26.958Z,69.66
2022-11-05T11:20:22.285Z,69.26
2022-11-05T11:23:06.934Z,69.92
2022-11-05T11:25:47.075Z,69.82
2022-11-05T11:28:23.817Z,70.50
2022-11-05T11:30:58.402Z,70.51
2022-11-05T11:33:29.277Z,70.99
2022-11-05T11:35:57.875Z,71.12
2022-11-05T11:38:26.790Z,71.30
2022-11-05T11:41:09.789Z,71.44
2022-11-05T11:43:42.226Z,71.67
2022-11-05T11:46:16.930Z,71.41
2022-11-05T11:48:48.465Z,71.84
2022-11-05T11:51:21.213Z,71.83
2022-11-05T11:53:50.523Z,72.29
2022-11-05T11:56:22.486Z,72.41
2022-11-05T11:58:53.637Z,72.63
2022-11-05T12:01:53.746Z,73.38
2022-11-05T12:04:51.097Z,73.65
2022-11-05T12:07:41.517Z,73.84
2022-11-05T12:10:28.023Z,73.65
2022-11-05T12:13:48.485Z,73.92
2022-11-05T12:16:32.530Z,74.18
2022-11-05T12:19:14.772Z,74.51
2022-11-05T12:21:53.720Z,74.51
2022-11-05T12:24:40.596Z,74.59
2022-11-05T12:27:27.692Z,74.23
2022-11-05T12:30:06.513Z,74.01
2022-11-05T12:33:07.074Z,74.15
2022-11-05T12:36:05.090Z,74.32
2022-11-05T12:39:04.310Z,74.23
2022-11-05T12:41:41.271Z,74.44
2022-11-05T12:44:38.913Z,74.56
2022-11-05T12:47:27.940Z,74.48
2022-11-05T12:50:16.231Z,74.16
2022-11-05T12:53:34.376Z,74.29
2022-11-05T12:56:10.169Z,74.51
2022-11-05T12:58:43.308Z,74.70
2022-11-05T13:01:22.245Z,74.37
2022-11-05T13:03:56.550Z,74.30
2022-11-05T13:06:31.838Z,74.98
2022-11-05T13:09:05.391Z,75.30
2022-11-05T13:11:40.027Z,75.36
2022-11-05T13:14:14.742Z,75.46
2022-11-05T13:16:48.484Z,75.37
2022-11-05T13:19:25.087Z,74.67
2022-11-05T13:21:58.593Z,74.46
2022-11-05T13:24:33.199Z,74.73
2022-11-05T13:27:13.191Z,74.33
2022-11-05T13:29:49.876Z,74.79
2022-11-05T13:32:29.323Z,75.01
2022-11-05T13:34:59.877Z,75.03
2022-11-05T13:37:48.761Z,74.90
2022-11-05T13:40:22.675Z,75.45
2022-11-05T13:43:43.620Z,75.10
2022-11-05T13:46:39.619Z,74.82
2022-11-05T13:49:46.331Z,75.43
2022-11-05T13:52:38.846Z,75.15
2022-11-05T13:55:47.541Z,75.71
2022-11-05T13:58:53.864Z,75.84
2022-11-05T14:01:44.491Z,76.25
2022-11-05T14:04:27.081Z,76.54
2022-11-05T14:07:06.948Z,76.66
2022-11-05T14:09:38.790Z,77.05
2022-11-05T14:12:20.343Z,77.26
2022-11-05T14:14:59.041Z,77.25
2022-11-05T14:17:36.497Z,77.45
2022-11-05T14:20:43.137Z,77.58
2022-11-05T14:23:50.892Z,77.52
2022-11-05T14:26:24.552Z,77.72
2022-11-05T14:29:24.058Z,77.88
2022-11-05T14:32:14.077Z,77.77
2022-11-05T14:34:49.510Z,77.86
2022-11-05T14:37:31.638Z,77.99
2022-11-05T14:40:30.293Z,77.83
2022-11-05T14:43:02.716Z,77.53
2022-11-05T14:45:32.671Z,77.98
2022-11-05T14:48:02.858Z,78.51
2022-11-05T14:50:38.786Z,78.76
2022-11-05T14:53:26.104Z,78.85
2022-11-05T14:56:02.390Z,79.18
2022-11-05T14:58:36.460Z,78.85
2022-11-05T15:01:07.530Z,79.03
2022-11-05T15:04:16.171Z,79.25
2022-11-05T15:07:33.523Z,79.15
2022-11-05T15:10:10.409Z,79.31
2022-11-05T15:12:44.893Z,79.45
2022-11-05T15:15:28.666Z,79.97
2022-11-05T15:18:04.916Z,80.29
2022-11-05T15:20:40.356Z,80.55
2022-11-05T15:23:15.075Z,80.56
2022-11-05T15:25:53.393Z,81.04
2022-11-05T15:28:31.691Z,80.68
2022-11-05T15:31:04.878Z,80.69
2022-11-05T15:33:34.206Z,81.22
2022-11-05T15:36:26.281Z,81.87
2022-11-05T15:39:22.887Z,82.37
2022-11-05T15:41:44.722Z,82.83
2022-11-05T15:44:26.913Z,83.54
2022-11-05T15:47:27.794Z,84.15
2022-11-05T15:49:57.605Z,84.48
2022-11-05T15:52:34.693Z,84.49
2022-11-05T15:55:22.152Z,85.14
2022-11-05T15:58:00.416Z,85.24
2022-11-05T16:00:30.812Z,85.76
2022-11-05T16:03:05.742Z,85.59
2022-11-05T16:05:42.869Z,85.83
2022-11-05T16:08:18.508Z,86.16
2022-11-05T16:10:49.810Z,86.43
2022-11-05T16:13:40.120Z,86.51
2022-11-05T16:16:35.101Z,86.67
2022-11-05T16:19:40.323Z,86.96
2022-11-05T16:22:09.304Z,87.11
2022-11-05T16:24:37.656Z,87.09
2022-11-05T16:27:06.421Z,87.10
2022-11-05T16:29:37.703Z,87.20
2022-11-05T16:32:16.182Z,87.20
2022-11-05T16:34:50.521Z,87.36
2022-11-05T16:37:22.180Z,87.42
2022-11-05T16:39:50.672Z,87.62
2022-11-05T16:42:39.852Z,87.39
2022-11-05T16:45:12.597Z,87.57
2022-11-05T16:47:40.875Z,87.33
2022-11-05T16:50:21.540Z,87.02
2022-11-05T16:52:50.272Z,87.24
2022-11-05T16:55:19.721Z,87.89
2022-11-05T16:57:52.414Z,87.78
2022-11-05T17:00:22.732Z,87.49
2022-11-05T17:02:52.110Z,87.76
2022-11-05T17:05:25.718Z,87.92
2022-11-05T17:07:54.726Z,87.69
2022-11-05T17:10:25.194Z,87.85
2022-11-05T17:12:53.671Z,87.76
2022-11-05T17:15:25.902Z,87.69
2022-11-05T17:17:55.693Z,87.56
2022-11-05T17:20:40.284Z,87.34
2022-11-05T17:23:11.290Z,87.75
2022-11-05T17:25:40.597Z,87.59
2022-11-05T17:28:10.199Z,87.79
2022-11-05T17:30:41.424Z,87.49
2022-11-05T17:33:11.075Z,87.58
2022-11-05T17:35:42.223Z,87.71
2022-11-05T17:38:10.436Z,87.22
2022-11-05T17:40:39.757Z,87.62
2022-11-05T17:43:08.923Z,87.43
2022-11-05T17:45:43.809Z,87.52
2022-11-05T17:48:12.499Z,87.21
2022-11-05T17:50:47.539Z,86.98
2022-11-05T17:53:18.452Z,86.87
2022-11-05T17:55:48.251Z,87.18
2022-11-05T17:58:16.888Z,87.12
2022-11-05T18:00:46.590Z,87.19
2022-11-05T18:03:16.006Z,86.70
2022-11-05T18:05:46.079Z,86.64
2022-11-05T18:08:14.282Z,86.45
2022-11-05T18:10:42.854Z,86.52
2022-11-05T18:13:12.192Z,86.57
2022-11-05T18:15:41.279Z,86.46
2022-11-05T18:18:10.275Z,86.42
2022-11-05T18:20:39.615Z,86.17
2022-11-05T18:23:09.380Z,86.06
2022-11-05T18:25:37.880Z,86.11
2022-11-05T18:28:06.562Z,86.14
2022-11-05T18:30:35.275Z,86.17
2022-11-05T18:33:03.467Z,85.93
2022-11-05T18:35:31.794Z,86.14
2022-11-05T18:38:00.245Z,85.71
2022-11-05T18:40:30.183Z,85.74
2022-11-05T18:42:58.446Z,86.12
2022-11-05T18:45:29.743Z,86.25
2022-11-05T18:47:58.422Z,86.15
2022-11-05T18:50:26.670Z,86.30
2022-11-05T18:52:55.060Z,86.34
2022-11-05T18:55:24.001Z,86.05
2022-11-05T18:57:53.698Z,86.44
2022-11-05T19:00:22.206Z,86.47
2022-11-05T19:02:50.669Z,86.70
2022-11-05T19:05:34.495Z,86.20
2022-11-05T19:08:02.799Z,86.18
2022-11-05T19:10:31.075Z,85.96
2022-11-05T19:13:00.687Z,86.05
2022-11-05T19:15:28.951Z,86.21
2022-11-05T19:17:57.166Z,86.23
2022-11-05T19:20:25.600Z,85.92
2022-11-05T19:22:53.855Z,85.90
2022-11-05T19:25:22.155Z,85.96
2022-11-05T19:27:50.444Z,85.85
2022-11-05T19:30:20.275Z,85.67
2022-11-05T19:32:48.569Z,86.15
2022-11-05T19:35:16.891Z,86.10
2022-11-05T19:37:45.432Z,86.09
2022-11-05T19:40:13.993Z,86.19
2022-11-05T19:42:42.330Z,86.42
2022-11-05T19:45:38.368Z,86.44
2022-11-05T19:48:01.415Z,86.82
2022-11-05T19:50:29.767Z,86.54
2022-11-05T19:52:58.148Z,86.54
2022-11-05T19:55:26.550Z,86.71
2022-11-05T19:57:55.011Z,86.89
2022-11-05T20:00:23.498Z,87.12
2022-11-05T20:02:51.917Z,87.49
2022-11-05T20:05:21.967Z,87.37
2022-11-05T20:07:53.130Z,87.73
2022-11-05T20:10:22.002Z,87.77
2022-11-05T20:12:50.762Z,87.34
2022-11-05T20:15:19.779Z,87.82
2022-11-05T20:17:52.822Z,87.86
2022-11-05T20:20:22.686Z,87.62
2022-11-05T20:22:53.567Z,87.73
2022-11-05T20:25:21.857Z,87.71
2022-11-05T20:27:50.225Z,87.65
2022-11-05T20:30:18.975Z,87.71
2022-11-05T20:32:47.304Z,87.74
2022-11-05T20:35:15.656Z,88.24
2022-11-05T20:37:48.540Z,88.27
2022-11-05T20:40:21.077Z,88.18
2022-11-05T20:42:49.328Z,88.19
2022-11-05T20:45:17.724Z,88.17
2022-11-05T20:47:45.973Z,88.22
2022-11-05T20:50:14.238Z,87.92
2022-11-05T20:52:43.881Z,88.19
2022-11-05T20:55:12.209Z,88.11
2022-11-05T20:57:40.573Z,88.27
2022-11-05T21:00:10.429Z,88.37
2022-11-05T21:02:41.225Z,88.37
2022-11-05T21:05:10.326Z,88.44
2022-11-05T21:07:38.546Z,88.50
2022-11-05T21:10:08.814Z,88.59
2022-11-05T21:12:37.053Z,88.43
2022-11-05T21:15:06.764Z,88.57
2022-11-05T21:17:35.006Z,88.36
2022-11-05T21:20:03.469Z,88.70
2022-11-05T21:22:31.962Z,88.71
2022-11-05T21:25:00.175Z,88.44
2022-11-05T21:27:29.753Z,88.70
2022-11-05T21:29:58.008Z,88.80
2022-11-05T21:32:26.211Z,88.93
2022-11-05T21:34:54.388Z,89.10
2022-11-05T21:37:22.730Z,88.89
2022-11-05T21:39:51.448Z,88.57
2022-11-05T21:42:19.789Z,88.54
2022-11-05T21:44:49.397Z,88.36
2022-11-05T21:47:17.669Z,88.26
2022-11-05T21:49:45.860Z,88.47
2022-11-05T21:52:31.813Z,88.30
2022-11-05T21:55:17.569Z,88.15
2022-11-05T21:58:03.209Z,88.70
2022-11-05T22:00:32.873Z,88.85
2022-11-05T22:03:01.128Z,88.83
2022-11-05T22:05:29.519Z,89.08
2022-11-05T22:07:57.746Z,89.01
2022-11-05T22:10:26.249Z,89.24
2022-11-05T22:12:54.466Z,89.49
2022-11-05T22:15:22.721Z,89.81
2022-11-05T22:17:52.750Z,89.56
2022-11-05T22:20:21.148Z,89.75
2022-11-05T22:22:49.470Z,90.02
2022-11-05T22:25:17.870Z,89.62
2022-11-05T22:27:46.193Z,89.55
2022-11-05T22:30:15.483Z,89.37
2022-11-05T22:32:43.765Z,89.59
2022-11-05T22:35:13.389Z,89.67
2022-11-05T22:37:41.685Z,89.61
2022-11-05T22:40:10.917Z,89.41
2022-11-05T22:42:39.230Z,89.70
2022-11-05T22:45:08.900Z,89.54
2022-11-05T22:47:37.384Z,90.00
2022-11-05T22:50:07.310Z,90.53
2022-11-05T22:52:36.967Z,91.32
2022-11-05T22:55:06.259Z,91.59
2022-11-05T22:57:34.606Z,91.42
2022-11-05T23:00:02.984Z,91.78
2022-11-05T23:02:31.426Z,92.12
2022-11-05T23:04:59.819Z,92.00
2022-11-05T23:07:45.454Z,91.87
2022-11-05T23:10:28.988Z,91.98
2022-11-05T23:12:57.208Z,92.22
2022-11-05T23:15:42.014Z,91.91
2022-11-05T23:18:28.338Z,91.97
2022-11-05T23:21:15.337Z,91.92
2022-11-05T23:24:03.539Z,91.71
2022-11-05T23:26:51.185Z,91.68
2022-11-05T23:29:21.371Z,91.68
2022-11-05T23:32:07.531Z,91.67
2022-11-05T23:34:36.301Z,91.75
2022-11-05T23:37:22.669Z,91.75
2022-11-05T23:39:51.265Z,91.61
2022-11-05T23:42:39.013Z,91.33
2022-11-05T23:45:25.989Z,90.91
2022-11-05T23:48:12.683Z,91.23
2022-11-05T23:50:41.683Z,91.11
2022-11-05T23:53:10.537Z,91.10
2022-11-05T23:55:39.514Z,91.02
2022-11-05T23:58:10.170Z,91.20
